createdAt,value
2018-10-17T00:00:00.135Z,100161.01
2018-10-17T00:02:26.123Z,100162.38
2018-10-17T00:04:52.163Z,100160.29
2018-10-17T00:07:18.174Z,100165.36
2018-10-17T00:09:44.257Z,100162.97
2018-10-17T00:12:10.254Z,100161.82
2018-10-17T00:14:37.561Z,100160.97
2018-10-17T00:17:04.494Z,100159.72
2018-10-17T00:19:30.480Z,100160.97
2018-10-17T00:21:56.486Z,100158.48
2018-10-17T00:24:22.527Z,100150.52
2018-10-17T00:26:48.574Z,100153.89
2018-10-17T00:29:15.264Z,100152.64
2018-10-17T00:31:41.257Z,100157.32
2018-10-17T00:34:07.345Z,100152.61
2018-10-17T00:36:33.374Z,100153.16
2018-10-17T00:38:59.368Z,100155.86
2018-10-17T00:43:57.630Z,100155.08
2018-10-17T00:46:23.647Z,100148.60
2018-10-17T00:48:49.706Z,100149.63
2018-10-17T00:51:15.744Z,100147.73
2018-10-17T00:53:41.754Z,100141.02
2018-10-17T00:56:07.861Z,100153.38
2018-10-17T00:58:33.892Z,100152.36
2018-10-17T01:00:59.935Z,100150.66
2018-10-17T01:03:25.995Z,100150.31
2018-10-17T01:05:52.051Z,100149.15
2018-10-17T01:08:18.068Z,100152.41
2018-10-17T01:10:44.154Z,100156.47
2018-10-17T01:13:10.219Z,100157.74
2018-10-17T01:15:36.787Z,100155.37
2018-10-17T01:18:03.101Z,100162.80
2018-10-17T01:20:29.183Z,100163.19
2018-10-17T01:22:55.305Z,100163.42
2018-10-17T01:25:21.290Z,100160.53
2018-10-17T01:27:47.312Z,100162.39
2018-10-17T01:30:13.399Z,100166.59
2018-10-17T01:32:39.414Z,100161.34
2018-10-17T01:35:05.485Z,100154.80
2018-10-17T01:37:31.526Z,100152.75
2018-10-17T01:39:57.539Z,100150.47
2018-10-17T01:42:24.354Z,100152.59
2018-10-17T01:44:50.390Z,100152.84
2018-10-17T01:47:16.841Z,100153.36
2018-10-17T01:49:42.838Z,100151.31
2018-10-17T01:52:08.879Z,100151.14
2018-10-17T01:54:35.059Z,100150.57
2018-10-17T01:57:01.150Z,100149.25
2018-10-17T01:59:28.301Z,100148.30
2018-10-17T02:01:54.530Z,100141.02
2018-10-17T02:04:20.609Z,100144.89
2018-10-17T02:06:46.635Z,100145.72
2018-10-17T02:09:12.646Z,100140.65
2018-10-17T02:11:38.742Z,100140.65
2018-10-17T02:14:04.749Z,100140.56
2018-10-17T02:19:02.471Z,100148.92
2018-10-17T02:21:28.509Z,100140.22
2018-10-17T02:23:54.525Z,100143.59
2018-10-17T02:26:20.552Z,100137.91
2018-10-17T02:28:46.681Z,100135.09
2018-10-17T02:31:12.818Z,100140.67
2018-10-17T02:33:38.776Z,100139.91
2018-10-17T02:36:04.889Z,100140.86
2018-10-17T02:38:30.876Z,100142.30
2018-10-17T02:40:57.016Z,100141.19
2018-10-17T02:43:23.478Z,100141.44
2018-10-17T02:45:49.459Z,100142.75
2018-10-17T02:48:15.507Z,100143.14
2018-10-17T02:50:41.526Z,100141.86
2018-10-17T02:53:07.594Z,100145.68
2018-10-17T03:16:33.626Z,100143.98
2018-10-17T03:29:04.862Z,100145.50
2018-10-17T03:31:31.053Z,100145.41
2018-10-17T03:33:57.018Z,100143.98
2018-10-17T03:36:23.045Z,100141.00
2018-10-17T03:38:49.858Z,100143.09
2018-10-17T03:43:48.376Z,100147.47
2018-10-17T03:46:14.411Z,100146.54
2018-10-17T03:51:12.565Z,100150.55
2018-10-17T03:53:38.606Z,100150.86
2018-10-17T03:56:04.598Z,100154.34
2018-10-17T03:58:30.625Z,100154.86
2018-10-17T04:00:56.785Z,100154.38
2018-10-17T04:03:22.882Z,100153.63
2018-10-17T04:05:49.025Z,100154.77
2018-10-17T04:08:15.150Z,100154.72
2018-10-17T04:10:41.234Z,100158.95
2018-10-17T04:13:07.383Z,100165.70
2018-10-17T04:15:33.402Z,100164.12
2018-10-17T04:17:59.531Z,100153.91
2018-10-17T04:20:25.617Z,100151.45
2018-10-17T04:22:51.670Z,100150.16
2018-10-17T04:25:17.794Z,100149.83
2018-10-17T04:27:43.838Z,100151.91
2018-10-17T04:30:09.908Z,100152.61
2018-10-17T04:32:35.979Z,100145.76
2018-10-17T04:35:02.088Z,100149.97
2018-10-17T04:37:28.130Z,100155.06
2018-10-17T04:39:54.196Z,100149.04
2018-10-17T04:42:20.291Z,100149.23
2018-10-17T04:44:46.385Z,100149.27
2018-10-17T04:47:12.470Z,100154.39
2018-10-17T04:49:38.489Z,100146.92
2018-10-17T04:52:04.612Z,100151.22
2018-10-17T04:54:31.700Z,100151.91
2018-10-17T04:56:57.802Z,100154.45
2018-10-17T04:59:23.912Z,100153.28
2018-10-17T05:01:49.959Z,100152.87
2018-10-17T05:04:16.015Z,100152.50
2018-10-17T05:06:42.111Z,100156.73
2018-10-17T05:09:08.117Z,100140.66
2018-10-17T05:11:34.246Z,100152.45
2018-10-17T05:14:00.282Z,100151.99
2018-10-17T05:16:26.398Z,100152.89
2018-10-17T05:18:52.449Z,100154.44
2018-10-17T05:21:18.498Z,100151.27
2018-10-17T05:23:44.609Z,100159.66
2018-10-17T05:26:11.686Z,100160.80
2018-10-17T05:28:37.767Z,100155.31
2018-10-17T05:31:03.806Z,100154.50
2018-10-17T05:33:29.922Z,100157.48
2018-10-17T05:35:55.992Z,100161.83
2018-10-17T05:38:23.337Z,100159.00
2018-10-17T05:40:49.411Z,100156.38
2018-10-17T05:43:15.534Z,100165.77
2018-10-17T05:45:41.551Z,100170.16
2018-10-17T05:48:07.678Z,100168.29
2018-10-17T05:50:33.784Z,100171.97
2018-10-17T05:52:59.889Z,100165.74
2018-10-17T05:55:25.956Z,100173.48
2018-10-17T05:57:52.113Z,100173.88
2018-10-17T06:00:18.231Z,100176.78
2018-10-17T06:02:44.354Z,100179.29
2018-10-17T06:05:10.586Z,100181.33
2018-10-17T06:07:36.587Z,100180.89
2018-10-17T06:10:02.705Z,100185.52
2018-10-17T06:12:28.757Z,100190.24
2018-10-17T06:14:54.813Z,100190.93
2018-10-17T06:17:20.977Z,100193.69
2018-10-17T06:19:47.015Z,100192.55
2018-10-17T06:22:13.060Z,100194.33
2018-10-17T06:24:39.078Z,100192.23
2018-10-17T06:27:05.079Z,100194.20
2018-10-17T06:29:31.134Z,100189.84
2018-10-17T06:31:57.233Z,100187.77
2018-10-17T06:34:23.402Z,100184.53
2018-10-17T06:36:49.372Z,100190.61
2018-10-17T06:39:15.436Z,100194.09
2018-10-17T06:41:41.590Z,100193.34
2018-10-17T06:44:07.783Z,100194.08
2018-10-17T06:46:33.823Z,100196.28
2018-10-17T06:48:59.900Z,100196.80
2018-10-17T06:51:25.968Z,100197.36
2018-10-17T06:53:52.127Z,100202.37
2018-10-17T06:56:18.300Z,100201.34
2018-10-17T06:58:44.388Z,100201.25
2018-10-17T07:01:10.558Z,100199.84
2018-10-17T07:03:36.611Z,100198.49
2018-10-17T07:06:02.800Z,100205.76
2018-10-17T07:08:28.949Z,100202.42
2018-10-17T07:10:55.802Z,100205.61
2018-10-17T07:15:54.388Z,100200.01
2018-10-17T07:18:20.743Z,100200.45
2018-10-17T07:20:46.810Z,100202.02
2018-10-17T07:23:13.083Z,100204.48
2018-10-17T07:25:39.236Z,100208.28
2018-10-17T07:28:05.313Z,100208.46
2018-10-17T07:30:31.575Z,100208.44
2018-10-17T07:35:30.188Z,100211.92
2018-10-17T07:37:57.361Z,100211.89
2018-10-17T07:40:23.462Z,100211.03
2018-10-17T07:42:49.678Z,100206.81
2018-10-17T07:45:15.735Z,100207.47
2018-10-17T07:47:41.849Z,100203.83
2018-10-17T07:50:07.989Z,100204.42
2018-10-17T07:52:35.080Z,100210.45
2018-10-17T08:12:43.943Z,100201.53
2018-10-17T08:15:10.077Z,100207.08
2018-10-17T08:17:36.190Z,100207.94
2018-10-17T08:20:02.325Z,100205.44
2018-10-17T08:22:29.054Z,100202.59
2018-10-17T08:24:57.365Z,100206.10
2018-10-17T08:27:23.579Z,100203.56
2018-10-17T08:29:49.723Z,100207.78
2018-10-17T08:32:15.887Z,100206.98
2018-10-17T08:34:42.076Z,100203.24
2018-10-17T08:37:08.456Z,100204.19
2018-10-17T08:39:34.393Z,100199.02
2018-10-17T08:42:00.662Z,100203.14
2018-10-17T08:44:26.808Z,100203.31
2018-10-17T08:46:52.905Z,100206.13
2018-10-17T08:49:19.098Z,100202.81
2018-10-17T08:51:45.260Z,100199.99
2018-10-17T08:54:11.445Z,100203.70
2018-10-17T08:56:37.605Z,100203.77
2018-10-17T08:59:03.766Z,100207.31
2018-10-17T09:01:30.562Z,100203.64
2018-10-17T09:03:57.502Z,100208.85
2018-10-17T09:06:23.722Z,100210.20
2018-10-17T09:08:50.130Z,100206.90
2018-10-17T09:11:16.356Z,100202.73
2018-10-17T09:46:30.211Z,100205.33
2018-10-17T09:48:56.470Z,100191.86
2018-10-17T09:51:23.605Z,100183.63
2018-10-17T09:56:18.752Z,100186.08
2018-10-17T09:58:44.939Z,100186.98
2018-10-17T10:01:15.679Z,100175.77
2018-10-17T10:03:44.569Z,100173.64
2018-10-17T10:06:12.307Z,100176.48
2018-10-17T10:08:38.502Z,100179.31
2018-10-17T10:11:05.277Z,100177.45
2018-10-17T10:16:12.106Z,100170.30
2018-10-17T10:18:38.242Z,100167.21
2018-10-17T10:21:04.361Z,100169.22
2018-10-17T10:23:30.470Z,100162.13
2018-10-17T10:25:56.527Z,100156.06
2018-10-17T10:28:22.754Z,100159.72
2018-10-17T10:30:48.723Z,100156.59
2018-10-17T10:33:18.188Z,100152.33
2018-10-17T10:35:44.352Z,100156.59
2018-10-17T10:38:10.542Z,100152.34
2018-10-17T10:40:36.654Z,100143.33
2018-10-17T10:43:02.774Z,100150.55
2018-10-17T10:45:28.973Z,100140.75
2018-10-17T10:47:55.027Z,100138.88
2018-10-17T10:50:21.133Z,100140.04
2018-10-17T10:52:47.303Z,100132.68
2018-10-17T10:55:13.555Z,100126.58
2018-10-17T10:57:40.318Z,100131.73
2018-10-17T11:00:06.506Z,100126.95
2018-10-17T11:02:32.623Z,100126.45
2018-10-17T11:05:00.881Z,100123.19
2018-10-17T11:07:26.950Z,100124.44
2018-10-17T11:09:53.066Z,100123.59
2018-10-17T11:12:23.277Z,100118.44
2018-10-17T11:14:49.567Z,100112.14
2018-10-17T11:17:15.558Z,100111.66
2018-10-17T11:19:41.638Z,100115.80
2018-10-17T11:22:07.757Z,100114.06
2018-10-17T11:24:33.838Z,100116.57
2018-10-17T11:27:00.044Z,100105.72
2018-10-17T11:29:26.153Z,100106.42
2018-10-17T11:31:52.395Z,100109.00
2018-10-17T11:34:18.451Z,100108.05
2018-10-17T11:36:44.602Z,100103.58
2018-10-17T11:39:10.774Z,100102.62
2018-10-17T11:41:36.989Z,100103.44
2018-10-17T11:44:03.065Z,100100.78
2018-10-17T11:46:30.038Z,100096.98
2018-10-17T11:48:56.150Z,100096.98
2018-10-17T11:51:22.515Z,100094.04
2018-10-17T11:53:48.591Z,100098.28
2018-10-17T11:56:14.709Z,100098.69
2018-10-17T11:58:42.038Z,100099.34
2018-10-17T12:01:08.204Z,100094.67
2018-10-17T12:03:35.250Z,100089.04
2018-10-17T12:06:01.298Z,100086.46
2018-10-17T12:08:27.377Z,100077.00
2018-10-17T12:10:53.496Z,100077.73
2018-10-17T12:13:19.614Z,100076.23
2018-10-17T12:15:45.771Z,100074.17
2018-10-17T12:18:11.914Z,100078.23
2018-10-17T12:20:37.989Z,100074.73
2018-10-17T12:23:04.173Z,100072.92
2018-10-17T12:25:30.315Z,100072.08
2018-10-17T12:27:56.576Z,100069.98
2018-10-17T12:30:22.678Z,100073.92
2018-10-17T12:40:23.263Z,100067.98
2018-10-17T12:42:49.326Z,100066.92
2018-10-17T12:45:15.612Z,100077.16
2018-10-17T12:47:41.662Z,100067.25
2018-10-17T12:50:07.814Z,100063.31
2018-10-17T12:52:34.003Z,100066.27
2018-10-17T12:55:00.119Z,100065.30
2018-10-17T12:57:26.189Z,100069.10
2018-10-17T12:59:52.293Z,100057.09
2018-10-17T13:02:18.388Z,100062.73
2018-10-17T13:04:44.542Z,100063.17
2018-10-17T13:07:10.763Z,100055.44
2018-10-17T13:09:36.923Z,100060.89
2018-10-17T13:12:02.967Z,100053.70
2018-10-17T13:14:29.042Z,100065.23
2018-10-17T13:16:57.080Z,100057.50
2018-10-17T13:19:23.173Z,100057.94
2018-10-17T13:21:49.397Z,100059.16
2018-10-17T13:24:15.443Z,100058.20
2018-10-17T13:26:41.507Z,100064.94
2018-10-17T13:29:07.678Z,100061.00
2018-10-17T13:31:33.862Z,100058.79
2018-10-17T13:34:00.063Z,100051.90
2018-10-17T13:36:26.224Z,100045.45
2018-10-17T14:04:05.119Z,100039.05
2018-10-17T14:06:31.266Z,100035.80
2018-10-17T14:08:58.066Z,100034.44
2018-10-17T14:11:26.321Z,100032.55
2018-10-17T14:13:52.486Z,100037.20
2018-10-17T14:16:18.816Z,100034.14
2018-10-17T14:18:45.052Z,100035.43
2018-10-17T14:21:11.339Z,100037.13
2018-10-17T14:23:37.687Z,100037.13
2018-10-17T14:26:03.741Z,100034.91
2018-10-17T14:28:29.860Z,100040.07
2018-10-17T14:30:56.898Z,100032.26
2018-10-17T14:33:23.262Z,100040.92
2018-10-17T14:35:49.392Z,100035.98
2018-10-17T14:38:15.544Z,100035.61
2018-10-17T14:40:41.834Z,100039.11
2018-10-17T14:43:07.863Z,100037.89
2018-10-17T14:45:34.374Z,100029.23
2018-10-17T14:48:00.559Z,100032.26
2018-10-17T14:50:26.708Z,100036.60
2018-10-17T14:52:52.859Z,100022.79
2018-10-17T14:55:19.053Z,100030.08
2018-10-17T14:57:45.237Z,100024.84
2018-10-17T15:00:11.419Z,100028.72
2018-10-17T15:02:37.517Z,100022.34
2018-10-17T15:05:04.565Z,100030.45
2018-10-17T15:07:31.562Z,100030.01
2018-10-17T15:09:58.129Z,100027.88
2018-10-17T15:12:24.299Z,100028.79
2018-10-17T15:14:50.700Z,100039.11
2018-10-17T15:17:16.825Z,100039.11
2018-10-17T15:19:42.955Z,100034.84
2018-10-17T15:22:09.749Z,100041.77
2018-10-17T15:24:35.947Z,100040.92
2018-10-17T15:27:02.970Z,100037.56
2018-10-17T15:29:29.020Z,100040.14
2018-10-17T15:31:55.238Z,100043.50
2018-10-17T15:34:21.293Z,100045.70
2018-10-17T15:36:47.359Z,100050.39
2018-10-17T15:39:13.518Z,100047.44
2018-10-17T15:41:39.587Z,100050.02
2018-10-17T15:44:05.674Z,100056.47
2018-10-17T15:46:31.742Z,100051.75
2018-10-17T15:48:57.843Z,100056.91
2018-10-17T15:51:23.895Z,100055.69
2018-10-17T15:53:50.042Z,100054.84
2018-10-17T15:56:16.190Z,100062.98
2018-10-17T15:58:42.317Z,100055.77
2018-10-17T16:01:08.546Z,100061.44
2018-10-17T16:03:34.566Z,100058.64
2018-10-17T16:06:00.644Z,100065.67
2018-10-17T16:08:26.800Z,100059.74
2018-10-17T16:10:52.872Z,100059.30
2018-10-17T16:13:18.981Z,100060.59
2018-10-17T16:15:45.207Z,100062.39
2018-10-17T16:18:11.568Z,100061.84
2018-10-17T16:20:37.831Z,100060.77
2018-10-17T16:23:04.108Z,100063.74
2018-10-17T16:25:30.114Z,100063.48
2018-10-17T16:30:28.669Z,100062.76
2018-10-17T16:32:54.793Z,100061.74
2018-10-17T16:35:20.945Z,100062.69
2018-10-17T16:37:47.086Z,100064.50
2018-10-17T16:40:13.186Z,100067.20
2018-10-17T16:42:39.400Z,100063.98
2018-10-17T16:45:05.491Z,100065.91
2018-10-17T16:47:31.679Z,100074.28
2018-10-17T16:49:57.735Z,100074.77
2018-10-17T16:52:23.834Z,100075.19
2018-10-17T16:54:50.110Z,100075.01
2018-10-17T16:57:16.306Z,100077.58
2018-10-17T16:59:42.379Z,100083.78
2018-10-17T17:02:08.448Z,100086.61
2018-10-17T17:04:34.630Z,100086.64
2018-10-17T17:07:01.483Z,100087.08
2018-10-17T17:12:01.224Z,100091.05
2018-10-17T17:14:27.454Z,100094.80
2018-10-17T17:16:53.468Z,100092.03
2018-10-17T17:21:51.939Z,100092.72
2018-10-17T17:24:18.098Z,100099.88
2018-10-17T17:26:44.917Z,100093.43
2018-10-17T17:29:11.229Z,100099.91
2018-10-17T17:31:37.509Z,100099.80
2018-10-17T17:34:03.888Z,100100.30
2018-10-17T17:36:30.819Z,100100.59
2018-10-17T17:38:59.210Z,100102.74
2018-10-17T17:41:28.248Z,100100.06
2018-10-17T17:43:55.294Z,100097.34
2018-10-17T17:46:25.672Z,100105.06
2018-10-17T17:48:51.922Z,100104.23
2018-10-17T17:51:18.083Z,100104.84
2018-10-17T17:53:44.235Z,100099.64
2018-10-17T17:56:10.312Z,100099.73
2018-10-17T17:58:36.738Z,100097.59
2018-10-17T18:01:02.631Z,100097.23
2018-10-17T18:03:28.717Z,100093.08
2018-10-17T18:05:54.932Z,100095.65
2018-10-17T18:08:22.267Z,100095.75
2018-10-17T18:10:48.347Z,100096.31
2018-10-17T18:13:14.521Z,100091.08
2018-10-17T18:15:40.647Z,100095.73
2018-10-17T18:18:06.767Z,100106.25
2018-10-17T18:20:32.887Z,100101.76
2018-10-17T18:22:59.015Z,100104.76
2018-10-17T18:25:26.055Z,100107.48
2018-10-17T18:27:52.237Z,100106.89
2018-10-17T18:30:18.234Z,100115.86
2018-10-17T18:32:44.300Z,100112.04
2018-10-17T18:40:13.666Z,100120.78
2018-10-17T18:42:39.793Z,100120.20
2018-10-17T18:45:05.845Z,100121.38
2018-10-17T18:52:35.091Z,100128.63
2018-10-17T18:55:01.265Z,100133.77
2018-10-17T18:57:27.350Z,100128.15
2018-10-17T18:59:53.478Z,100132.05
2018-10-17T19:02:19.550Z,100132.89
2018-10-17T19:04:45.775Z,100135.65
2018-10-17T19:07:11.887Z,100137.83
2018-10-17T19:09:38.007Z,100139.53
2018-10-17T19:12:04.099Z,100138.97
2018-10-17T19:14:30.177Z,100140.20
2018-10-17T19:16:56.380Z,100140.06
2018-10-17T19:19:22.508Z,100142.34
2018-10-17T19:21:48.581Z,100138.87
2018-10-17T19:24:14.710Z,100140.41
2018-10-17T19:26:41.040Z,100144.64
2018-10-17T19:29:07.169Z,100138.94
2018-10-17T19:31:33.251Z,100142.20
2018-10-17T19:33:59.419Z,100144.64
2018-10-17T19:36:25.489Z,100145.02
2018-10-17T20:11:38.320Z,100150.29
2018-10-17T20:14:04.465Z,100151.94
2018-10-17T20:16:31.728Z,100151.28
2018-10-17T20:18:57.832Z,100157.77
2018-10-17T20:21:23.917Z,100148.43
2018-10-17T20:23:50.199Z,100149.98
2018-10-17T20:26:17.299Z,100146.41
2018-10-17T20:28:43.369Z,100146.62
2018-10-17T20:31:09.544Z,100149.84
2018-10-17T20:33:35.819Z,100157.34
2018-10-17T20:36:06.966Z,100150.79
2018-10-17T20:38:33.204Z,100150.94
2018-10-17T20:40:59.376Z,100147.79
2018-10-17T20:43:25.567Z,100143.34
2018-10-17T20:45:51.620Z,100143.22
2018-10-17T20:48:17.862Z,100145.02
2018-10-17T20:50:44.007Z,100147.92
2018-10-17T20:53:10.122Z,100147.62
2018-10-17T20:55:36.315Z,100149.20
2018-10-17T20:58:02.377Z,100146.64
2018-10-17T21:00:29.046Z,100147.12
2018-10-17T21:02:55.159Z,100149.17
2018-10-17T21:05:21.337Z,100144.39
2018-10-17T21:07:47.462Z,100145.55
2018-10-17T21:10:13.607Z,100144.86
2018-10-17T21:12:39.640Z,100140.73
2018-10-17T21:15:06.366Z,100143.88
2018-10-17T21:17:32.556Z,100141.32
2018-10-17T21:19:58.690Z,100139.19
2018-10-17T21:22:24.770Z,100138.80
2018-10-17T21:24:50.861Z,100145.87
2018-10-17T21:27:16.913Z,100143.41
2018-10-17T21:29:43.013Z,100151.60
2018-10-17T21:32:09.129Z,100152.55
2018-10-17T21:34:35.238Z,100148.44
2018-10-17T21:37:01.317Z,100146.60
2018-10-17T21:39:27.416Z,100148.87
2018-10-17T21:41:53.527Z,100148.80
2018-10-17T21:44:19.584Z,100153.91
2018-10-17T21:46:45.645Z,100152.97
2018-10-17T21:49:11.768Z,100153.36
2018-10-17T21:51:37.870Z,100154.80
2018-10-17T21:54:04.032Z,100155.98
2018-10-17T21:56:30.154Z,100157.38
2018-10-17T21:58:56.242Z,100152.30
2018-10-17T22:01:22.339Z,100146.98
2018-10-17T22:03:48.435Z,100151.83
2018-10-17T22:06:14.549Z,100152.45
2018-10-17T22:08:40.711Z,100152.88
2018-10-17T22:11:06.807Z,100147.34
2018-10-17T22:13:32.905Z,100141.09
2018-10-17T22:15:59.061Z,100140.94
2018-10-17T22:18:25.867Z,100143.42
2018-10-17T22:20:51.954Z,100141.33
2018-10-17T22:23:18.052Z,100141.41
2018-10-17T22:25:44.142Z,100139.78
2018-10-17T22:28:10.284Z,100143.70
2018-10-17T22:30:36.365Z,100141.13
2018-10-17T22:33:02.437Z,100145.59
2018-10-17T22:35:28.488Z,100146.79
2018-10-17T22:37:54.604Z,100144.34
2018-10-17T22:40:20.681Z,100154.77
2018-10-17T22:42:46.757Z,100155.58
2018-10-17T22:45:12.804Z,100154.30
2018-10-17T22:47:38.836Z,100158.17
2018-10-17T22:50:05.097Z,100157.39
2018-10-17T22:52:31.114Z,100162.04
2018-10-17T22:54:57.204Z,100159.13
2018-10-17T22:57:23.246Z,100153.88
2018-10-17T22:59:49.406Z,100153.63
2018-10-17T23:02:15.553Z,100158.53
2018-10-17T23:04:41.605Z,100147.59
2018-10-17T23:07:07.815Z,100153.27
2018-10-17T23:09:33.853Z,100148.30
2018-10-17T23:11:59.954Z,100141.73
2018-10-17T23:14:26.078Z,100147.58
2018-10-17T23:16:52.216Z,100146.34
2018-10-17T23:19:18.297Z,100149.77
2018-10-17T23:21:44.362Z,100148.47
2018-10-17T23:24:10.373Z,100147.91
2018-10-17T23:26:36.429Z,100149.28
2018-10-17T23:29:02.479Z,100150.11
2018-10-17T23:31:28.592Z,100150.53
2018-10-17T23:33:54.638Z,100151.25
2018-10-17T23:36:20.713Z,100152.30
2018-10-17T23:38:46.797Z,100155.94
2018-10-17T23:41:12.865Z,100150.69
2018-10-17T23:43:38.945Z,100147.25
2018-10-17T23:46:05.052Z,100149.16
2018-10-17T23:48:31.218Z,100150.73
2018-10-17T23:50:57.302Z,100150.17
2018-10-17T23:53:23.420Z,100147.58
2018-10-17T23:55:49.529Z,100144.57
2018-10-17T23:58:15.611Z,100147.64
